Portersville, PA (16051)

12:44 PM EDT on July 31, 2015 (GMT -0400)
Harlansburg, PA | | Change Station
CLOSE
Current Station
Personal Weather Station
Location: New Castle, PA
Elevation: 1257 ft
Nearby Weather Stations

Elev 1257 ft 41.03 °N, 80.20 °W | Updated 30 seconds ago

Clear
Clear
79.7 °F
Feels Like 80 °F
N
0.0
Wind Variable Wind from ESE
Gusts 0.0 mph

Today
High -- | Low -- °F
--% Chance of Precip.
Yesterday
High -- | Low -- °F
Precip. -- in
6:15 AM 8:37 PM
Full, 100% visible
Pressure 30.00 in
Visibility -9999.0 miles
Clouds Clear
Heat Index 80 °F
Dew Point 56 °F
Humidity 45%
Rainfall 0.00 in
Snow Depth Not available.
UV 7.0 out of 12
Pollen 7.10 out of 12
Air Quality Not available.
Flu Activity Not available.
METAR KUCP 311556Z AUTO 26005KT CLR 29/16 A2998 RMK AO2 T02940155 SLP158 $

More Conditions Fewer Conditions

Pressure 30.00 in
Visibility -9999.0 miles
Clouds Clear
Heat Index 80 °F
Dew Point 56 °F
Humidity 45%
Rainfall 0.00 in
Snow Depth Not available.
UV 7.0 out of 12
Pollen 7.10 out of 12
Air Quality Not available.
Flu Activity Not available.
METAR KUCP 311556Z AUTO 26005KT CLR 29/16 A2998 RMK AO2 T02940155 SLP158 $

More Conditions Fewer Conditions

10-Day Weather Forecast

×

Almanac

Astronomy

Jul. 31, 2015 Rise Set
Actual Time
Civil Twilight
Nautical Twilight
Astronomical Twilight
Moon
Length of Visible Light
Length of Day
Tomorrow will be .
, % of the Moon is Illuminated

Today's Extremes

State Highs State Lows

Community

WunderPhotos

Upload Photos

1,842,693 photos uploaded!

WunderBlogs® & News

Nearby

Air Quality

  Air Quality AQ Index Pollutant
Not available.

Snow Depth

Station Depth Elevation

Earthquake Activity

City Distance Mag. Time & Date
Minimum magnitude displayed is 2.5.

Coastal Water Temperatures

Place Temperature

Stations

Nearby Weather Stations

Station Location Temp. Windchill Dew Point Humidity Wind Precip. Elev Updated Type